Time;durP1;ratioP1;P1;durP2;ratioP2;P2;SDS_P1;SDS_P2;PMS_P1;PMS_P2;Temp;Humidity;BMP_temperature;BMP_pressure;BME280_temperature;BME280_humidity;BME280_pressure;Samples;Min_cycle;Max_cycle;Signal;HPM_P1;HPM_P2
2024/01/25 00:01:11;;;;;;;0.30;0.30;;;;;;;6.63;100.00;102663.69;5092518;28;20380;-57
2024/01/25 00:03:37;;;;;;;0.20;0.20;;;;;;;6.59;100.00;102666.81;5092549;28;20025;-57
2024/01/25 00:06:02;;;;;;;0.30;0.30;;;;;;;6.51;100.00;102670.47;5092233;28;20102;-57
2024/01/25 00:08:28;;;;;;;0.40;0.40;;;;;;;6.50;100.00;102661.00;5092337;28;20020;-57
2024/01/25 00:10:53;;;;;;;0.30;0.30;;;;;;;6.46;100.00;102659.88;5091863;28;20103;-57
2024/01/25 00:13:18;;;;;;;0.40;0.40;;;;;;;6.40;100.00;102642.38;5092139;28;20110;-57
2024/01/25 00:15:44;;;;;;;0.35;0.35;;;;;;;6.37;100.00;102664.31;5092452;28;20026;-57
2024/01/25 00:18:09;;;;;;;0.30;0.30;;;;;;;6.36;100.00;102657.41;5091678;28;20035;-58
2024/01/25 00:20:35;;;;;;;0.40;0.40;;;;;;;6.30;100.00;102651.78;5092574;28;20028;-57
2024/01/25 00:23:00;;;;;;;0.30;0.30;;;;;;;6.26;100.00;102651.59;5092622;28;20031;-57
2024/01/25 00:25:25;;;;;;;0.40;0.40;;;;;;;6.22;100.00;102662.38;5091387;28;20024;-57
2024/01/25 00:27:51;;;;;;;0.30;0.30;;;;;;;6.17;100.00;102671.38;5092332;28;20119;-57
2024/01/25 00:30:16;;;;;;;0.38;0.38;;;;;;;6.12;100.00;102667.56;5092305;28;20104;-57
2024/01/25 00:32:41;;;;;;;0.40;0.40;;;;;;;6.09;100.00;102668.22;5091733;28;20035;-57
2024/01/25 00:35:09;;;;;;;0.30;0.30;;;;;;;6.07;100.00;102664.63;5092379;28;20020;-57
2024/01/25 00:37:35;;;;;;;0.40;0.40;;;;;;;6.06;100.00;102661.97;5092358;28;20031;-57
2024/01/25 00:40:01;;;;;;;0.40;0.40;;;;;;;6.06;100.00;102672.19;5091607;28;20110;-57
2024/01/25 00:42:27;;;;;;;0.40;0.40;;;;;;;6.01;100.00;102666.72;5091985;28;20032;-57
2024/01/25 00:44:52;;;;;;;0.40;0.40;;;;;;;5.94;100.00;102662.75;5092877;28;20051;-57
2024/01/25 00:47:18;;;;;;;0.40;0.40;;;;;;;5.97;100.00;102664.66;5095028;28;20374;-57
2024/01/25 00:49:44;;;;;;;0.40;0.40;;;;;;;5.90;100.00;102675.19;5095864;28;20023;-57
2024/01/25 00:52:10;;;;;;;0.40;0.40;;;;;;;5.89;100.00;102679.41;5095904;28;20060;-57
2024/01/25 00:54:35;;;;;;;0.32;0.32;;;;;;;5.85;100.00;102677.41;5094868;28;20050;-57
2024/01/25 00:57:01;;;;;;;0.30;0.30;;;;;;;5.82;100.00;102672.03;5095789;28;20494;-57
2024/01/25 00:59:26;;;;;;;0.40;0.40;;;;;;;5.76;100.00;102676.69;5095291;28;20026;-57
2024/01/25 01:01:54;;;;;;;0.30;0.30;;;;;;;5.73;100.00;102686.66;5095087;28;20349;-57
2024/01/25 01:04:20;;;;;;;0.30;0.30;;;;;;;5.65;100.00;102678.38;5095295;28;20024;-57
2024/01/25 01:06:47;;;;;;;0.30;0.30;;;;;;;5.66;100.00;102674.16;5095315;28;20425;-57
2024/01/25 01:09:13;;;;;;;0.30;0.30;;;;;;;5.60;100.00;102677.13;5094605;28;20077;-57
2024/01/25 01:11:38;;;;;;;0.30;0.30;;;;;;;5.64;100.00;102689.38;5095294;28;20372;-57
2024/01/25 01:14:03;;;;;;;0.30;0.30;;;;;;;5.60;100.00;102684.78;5095400;28;20035;-57
2024/01/25 01:16:32;;;;;;;0.40;0.40;;;;;;;5.54;100.00;102692.88;5094546;28;20032;-57
2024/01/25 01:18:58;;;;;;;0.40;0.40;;;;;;;5.53;100.00;102688.53;5095381;28;20024;-57
2024/01/25 01:21:23;;;;;;;0.40;0.40;;;;;;;5.52;100.00;102691.84;5094268;28;20480;-57
2024/01/25 01:23:48;;;;;;;0.30;0.30;;;;;;;5.43;100.00;102693.69;5095113;28;20028;-57
2024/01/25 01:26:14;;;;;;;0.30;0.30;;;;;;;5.39;100.00;102687.41;5094848;28;20020;-57
2024/01/25 01:28:39;;;;;;;0.40;0.40;;;;;;;5.37;100.00;102686.41;5094500;28;20031;-57
2024/01/25 01:31:04;;;;;;;0.38;0.38;;;;;;;5.35;100.00;102697.28;5095094;28;20024;-57
2024/01/25 01:33:30;;;;;;;0.40;0.40;;;;;;;5.32;100.00;102697.94;5094747;28;20024;-57
2024/01/25 01:35:55;;;;;;;0.40;0.40;;;;;;;5.31;100.00;102695.22;5093946;28;20361;-57
2024/01/25 01:38:20;;;;;;;0.30;0.30;;;;;;;5.26;100.00;102698.31;5094639;28;20031;-57
2024/01/25 01:40:46;;;;;;;0.32;0.32;;;;;;;5.26;100.00;102700.88;5094963;28;20399;-57
2024/01/25 01:43:23;;;;;;;0.40;0.40;;;;;;;5.23;100.00;102710.88;5093793;28;20020;-58
2024/01/25 01:45:48;;;;;;;0.30;0.30;;;;;;;5.22;100.00;102695.41;5094805;28;20520;-57
2024/01/25 01:48:14;;;;;;;0.40;0.40;;;;;;;5.18;100.00;102704.47;5094477;28;20020;-57
2024/01/25 01:50:39;;;;;;;0.40;0.40;;;;;;;5.14;100.00;102719.44;5093947;28;20058;-57
2024/01/25 01:53:05;;;;;;;0.40;0.40;;;;;;;5.12;100.00;102732.09;5094532;28;20052;-57
2024/01/25 01:55:32;;;;;;;0.30;0.30;;;;;;;5.05;100.00;102722.16;5094091;28;20035;-57
2024/01/25 01:57:58;;;;;;;0.30;0.30;;;;;;;4.99;100.00;102721.66;5093084;28;20109;-57
2024/01/25 02:00:25;;;;;;;0.40;0.40;;;;;;;4.97;100.00;102730.81;5094232;28;20302;-57
2024/01/25 02:02:50;;;;;;;0.40;0.40;;;;;;;4.95;100.00;102729.03;5094224;28;20581;-57
2024/01/25 02:05:16;;;;;;;0.30;0.30;;;;;;;4.92;100.00;102735.56;5093276;28;20032;-57
2024/01/25 02:07:42;;;;;;;0.32;0.32;;;;;;;4.86;100.00;102741.06;5094284;28;20028;-57
2024/01/25 02:10:08;;;;;;;0.30;0.30;;;;;;;4.80;100.00;102740.53;5094315;28;20106;-57
2024/01/25 02:12:34;;;;;;;0.32;0.32;;;;;;;4.75;100.00;102747.84;5093676;28;20032;-57
2024/01/25 02:14:59;;;;;;;0.30;0.30;;;;;;;4.71;100.00;102749.97;5094197;28;20035;-58
2024/01/25 02:17:24;;;;;;;0.30;0.30;;;;;;;4.69;100.00;102754.97;5093485;28;20028;-57
2024/01/25 02:19:50;;;;;;;0.40;0.40;;;;;;;4.71;100.00;102753.47;5093580;28;20111;-57
2024/01/25 02:22:18;;;;;;;0.32;0.32;;;;;;;4.71;100.00;102753.47;5093643;28;20027;-57
2024/01/25 02:24:44;;;;;;;0.30;0.30;;;;;;;4.74;100.00;102760.47;5093386;28;20028;-57
2024/01/25 02:27:09;;;;;;;0.30;0.30;;;;;;;4.68;100.00;102755.72;5094026;28;20035;-58
2024/01/25 02:29:34;;;;;;;0.30;0.30;;;;;;;4.68;100.00;102758.28;5094051;28;20430;-57
2024/01/25 02:32:00;;;;;;;0.30;0.30;;;;;;;4.69;100.00;102761.75;5093035;28;20046;-57
2024/01/25 02:34:25;;;;;;;0.30;0.30;;;;;;;4.68;100.00;102760.84;5093488;28;20040;-57
2024/01/25 02:36:50;;;;;;;0.35;0.35;;;;;;;4.63;100.00;102766.34;5093662;28;20028;-57
2024/01/25 02:39:16;;;;;;;0.30;0.30;;;;;;;4.59;100.00;102760.06;5092875;28;20478;-57
2024/01/25 02:41:41;;;;;;;0.30;0.30;;;;;;;4.55;100.00;102758.91;5093912;28;20027;-57
2024/01/25 02:44:07;;;;;;;0.32;0.32;;;;;;;4.54;100.00;102761.34;5093346;28;20085;-57
2024/01/25 02:46:32;;;;;;;0.30;0.30;;;;;;;4.51;100.00;102772.19;5092509;28;20024;-57
2024/01/25 02:48:57;;;;;;;0.40;0.40;;;;;;;4.47;100.00;102765.03;5093580;28;20035;-57
2024/01/25 02:51:22;;;;;;;0.40;0.40;;;;;;;4.45;100.00;102751.22;5093275;28;20032;-57
2024/01/25 02:53:48;;;;;;;0.40;0.40;;;;;;;4.46;100.00;102742.81;5092961;28;20463;-57
2024/01/25 02:56:13;;;;;;;0.30;0.30;;;;;;;4.46;100.00;102753.03;5093313;28;20040;-57
2024/01/25 02:58:38;;;;;;;0.40;0.40;;;;;;;4.39;100.00;102759.28;5093217;28;20034;-58
2024/01/25 03:01:04;;;;;;;0.30;0.30;;;;;;;4.35;100.00;102753.75;5092856;28;20035;-57
2024/01/25 03:03:29;;;;;;;0.38;0.38;;;;;;;4.33;100.00;102751.09;5093063;28;20039;-57
2024/01/25 03:05:54;;;;;;;0.40;0.40;;;;;;;4.31;100.00;102751.72;5092952;28;20028;-57
2024/01/25 03:08:19;;;;;;;0.40;0.40;;;;;;;4.35;100.00;102761.41;5092250;28;20587;-57
2024/01/25 03:10:49;;;;;;;0.40;0.40;;;;;;;4.26;100.00;102759.88;5093129;28;20035;-57
2024/01/25 03:13:14;;;;;;;0.40;0.40;;;;;;;4.31;100.00;102759.38;5092715;28;20024;-57
2024/01/25 03:15:40;;;;;;;0.40;0.40;;;;;;;4.26;100.00;102747.13;5092551;28;20032;-57
2024/01/25 03:18:05;;;;;;;0.40;0.40;;;;;;;4.26;100.00;102749.66;5093167;28;20020;-57
2024/01/25 03:20:30;;;;;;;0.32;0.32;;;;;;;4.20;100.00;102756.78;5092593;28;20031;-57
2024/01/25 03:22:55;;;;;;;0.40;0.40;;;;;;;4.23;100.00;102749.38;5092450;28;20074;-57
2024/01/25 03:25:21;;;;;;;0.40;0.40;;;;;;;4.20;100.00;102744.03;5092829;28;20024;-57
2024/01/25 03:27:46;;;;;;;0.38;0.38;;;;;;;4.18;100.00;102745.53;5093110;28;20307;-57
2024/01/25 03:30:12;;;;;;;0.40;0.40;;;;;;;4.20;100.00;102754.25;5092562;28;20106;-57
2024/01/25 03:32:37;;;;;;;0.38;0.38;;;;;;;4.18;100.00;102755.75;5092869;28;20031;-57
2024/01/25 03:35:02;;;;;;;0.40;0.40;;;;;;;4.10;100.00;102761.84;5091880;28;20479;-57
2024/01/25 03:37:28;;;;;;;0.40;0.40;;;;;;;4.14;100.00;102758.81;5092507;28;20028;-57
2024/01/25 03:39:53;;;;;;;0.40;0.40;;;;;;;4.14;100.00;102760.47;5093070;28;20071;-57
2024/01/25 03:42:18;;;;;;;0.35;0.35;;;;;;;4.12;100.00;102761.22;5091961;28;20024;-57
2024/01/25 03:44:44;;;;;;;0.30;0.30;;;;;;;4.07;100.00;102771.81;5092760;28;20044;-57
2024/01/25 03:47:10;;;;;;;0.30;0.30;;;;;;;3.99;100.00;102775.34;5092626;28;20024;-57
2024/01/25 03:49:36;;;;;;;0.30;0.30;;;;;;;3.99;100.00;102775.34;5091851;28;20051;-58
2024/01/25 03:52:01;;;;;;;0.40;0.40;;;;;;;3.98;100.00;102770.97;5092652;28;20071;-57
2024/01/25 03:54:26;;;;;;;0.38;0.38;;;;;;;3.94;100.00;102765.63;5092516;28;20074;-57
2024/01/25 03:56:52;;;;;;;0.30;0.30;;;;;;;3.94;100.00;102765.63;5091983;28;20115;-57
2024/01/25 03:59:17;;;;;;;0.40;0.40;;;;;;;3.93;100.00;102762.94;5092381;28;20024;-58
2024/01/25 04:01:49;;;;;;;0.40;0.40;;;;;;;3.93;100.00;102768.94;5092718;28;20028;-57
2024/01/25 04:04:15;;;;;;;0.50;0.50;;;;;;;3.90;100.00;102758.47;5091696;28;20111;-58
2024/01/25 04:06:45;;;;;;;0.40;0.40;;;;;;;3.88;100.00;102765.09;5092814;28;20059;-57
2024/01/25 04:09:11;;;;;;;0.40;0.40;;;;;;;3.83;100.00;102771.44;5092290;28;20032;-58
2024/01/25 04:11:37;;;;;;;0.40;0.40;;;;;;;3.81;100.00;102772.06;5092321;28;20390;-57
2024/01/25 04:14:04;;;;;;;0.40;0.40;;;;;;;3.79;100.00;102774.47;5092680;28;20040;-58
2024/01/25 04:16:29;;;;;;;0.40;0.40;;;;;;;3.76;100.00;102774.22;5092027;28;20459;-57
2024/01/25 04:18:54;;;;;;;0.30;0.30;;;;;;;3.77;100.00;102773.44;5091883;28;20016;-58
2024/01/25 04:21:19;;;;;;;0.40;0.40;;;;;;;3.76;100.00;102775.09;5095434;28;20027;-57
2024/01/25 04:23:45;;;;;;;0.40;0.40;;;;;;;3.77;100.00;102773.44;5096229;28;20367;-57
2024/01/25 04:26:10;;;;;;;0.40;0.40;;;;;;;3.74;100.00;102781.72;5095717;28;20467;-57
2024/01/25 04:28:36;;;;;;;0.40;0.40;;;;;;;3.70;100.00;102776.22;5096208;28;20353;-57
2024/01/25 04:31:03;;;;;;;0.40;0.40;;;;;;;3.72;100.00;102777.25;5096109;28;20023;-57
2024/01/25 04:33:28;;;;;;;0.40;0.40;;;;;;;3.73;100.00;102766.28;5095217;28;20016;-57
2024/01/25 04:35:53;;;;;;;0.40;0.40;;;;;;;3.67;100.00;102768.28;5096017;28;20123;-57
2024/01/25 04:38:19;;;;;;;0.40;0.40;;;;;;;3.67;100.00;102773.38;5095254;28;20047;-57
2024/01/25 04:40:44;;;;;;;0.40;0.40;;;;;;;3.66;100.00;102776.72;5096153;28;20030;-57
2024/01/25 04:43:11;;;;;;;0.40;0.40;;;;;;;3.65;100.00;102770.72;5095614;28;20494;-58
2024/01/25 04:45:36;;;;;;;0.30;0.30;;;;;;;3.59;100.00;102763.41;5095121;28;20383;-57
2024/01/25 04:48:02;;;;;;;0.30;0.30;;;;;;;3.57;100.00;102767.47;5095802;28;20016;-57
2024/01/25 04:50:27;;;;;;;0.45;0.45;;;;;;;3.54;100.00;102767.22;5095467;28;20109;-57
2024/01/25 04:52:53;;;;;;;0.40;0.40;;;;;;;3.54;100.00;102766.31;5095201;28;20131;-57
2024/01/25 04:55:19;;;;;;;0.30;0.30;;;;;;;3.49;100.00;102763.34;5095497;28;20099;-58
2024/01/25 04:57:45;;;;;;;0.40;0.40;;;;;;;3.46;100.00;102780.94;5095690;28;20095;-58
2024/01/25 05:00:11;;;;;;;0.40;0.40;;;;;;;3.46;100.00;102773.28;5094718;28;20157;-57
2024/01/25 05:02:36;;;;;;;0.40;0.40;;;;;;;3.44;100.00;102779.91;5095501;28;20027;-57
2024/01/25 05:05:02;;;;;;;0.40;0.40;;;;;;;3.40;100.00;102788.03;5094977;28;20493;-57
2024/01/25 05:07:27;;;;;;;0.40;0.40;;;;;;;3.37;100.00;102777.53;5094833;28;20077;-57
2024/01/25 05:09:52;;;;;;;0.40;0.40;;;;;;;3.37;100.00;102772.44;5095586;28;20103;-57
2024/01/25 05:12:17;;;;;;;0.40;0.40;;;;;;;3.35;100.00;102766.34;5095015;28;20016;-58
2024/01/25 05:14:45;;;;;;;0.50;0.50;;;;;;;3.29;100.00;102766.66;5094776;28;20369;-57
2024/01/25 05:17:10;;;;;;;0.40;0.40;;;;;;;3.36;100.00;102770.69;5094917;28;20085;-57
2024/01/25 05:19:35;;;;;;;0.40;0.40;;;;;;;3.31;100.00;102756.63;5095293;28;20438;-57
2024/01/25 05:22:01;;;;;;;0.40;0.40;;;;;;;3.29;100.00;102764.09;5094812;28;20034;-57
2024/01/25 05:24:26;;;;;;;0.47;0.47;;;;;;;3.23;100.00;102758.50;5094777;28;20429;-57
2024/01/25 05:26:52;;;;;;;0.43;0.43;;;;;;;3.27;100.00;102758.88;5095002;28;20032;-57
2024/01/25 05:29:17;;;;;;;0.40;0.40;;;;;;;3.19;100.00;102764.03;5094430;28;20103;-57
2024/01/25 05:31:42;;;;;;;0.40;0.40;;;;;;;3.18;100.00;102765.69;5094807;28;20024;-57
2024/01/25 05:34:08;;;;;;;0.50;0.50;;;;;;;3.12;100.00;102760.97;5095228;28;20099;-57
2024/01/25 05:36:33;;;;;;;0.45;0.45;;;;;;;3.08;100.00;102763.06;5093883;28;20044;-57
2024/01/25 05:38:58;;;;;;;0.40;0.40;;;;;;;3.11;100.00;102764.25;5095180;28;20042;-57
2024/01/25 05:41:24;;;;;;;0.32;0.32;;;;;;;3.09;100.00;102769.97;5094413;28;20422;-57
2024/01/25 05:43:49;;;;;;;0.40;0.40;;;;;;;3.11;100.00;102773.53;5094157;28;20036;-57
2024/01/25 05:46:14;;;;;;;0.40;0.40;;;;;;;3.10;100.00;102771.78;5094543;28;20479;-58
2024/01/25 05:48:39;;;;;;;0.40;0.40;;;;;;;3.05;100.00;102775.53;5094068;28;20034;-57
2024/01/25 05:51:05;;;;;;;0.47;0.47;;;;;;;3.03;100.00;102779.59;5094603;28;20027;-57
2024/01/25 05:53:30;;;;;;;0.40;0.40;;;;;;;3.00;100.00;102789.50;5094445;28;20464;-58
2024/01/25 05:55:55;;;;;;;0.40;0.40;;;;;;;2.99;100.00;102795.34;5093798;28;20028;-57
2024/01/25 05:58:20;;;;;;;0.40;0.40;;;;;;;2.94;100.00;102789.84;5094411;28;20357;-58
2024/01/25 06:00:46;;;;;;;0.32;0.32;;;;;;;2.95;100.00;102792.50;5094585;28;20024;-57
2024/01/25 06:03:11;;;;;;;0.40;0.40;;;;;;;2.97;100.00;102796.09;5093298;28;20436;-57
2024/01/25 06:05:36;;;;;;;0.40;0.40;;;;;;;2.91;100.00;102795.53;5094621;28;20028;-57
2024/01/25 06:08:02;;;;;;;0.30;0.30;;;;;;;2.89;100.00;102786.88;5094320;28;20494;-58
2024/01/25 06:10:27;;;;;;;0.38;0.38;;;;;;;2.85;100.00;102783.91;5093380;28;20396;-57
2024/01/25 06:12:53;;;;;;;0.40;0.40;;;;;;;2.86;100.00;102780.59;5094234;28;20024;-57
2024/01/25 06:15:18;;;;;;;0.40;0.40;;;;;;;2.77;100.00;102781.53;5093791;28;20036;-57
2024/01/25 06:17:43;;;;;;;0.40;0.40;;;;;;;2.75;100.00;102784.69;5093588;28;20031;-57
2024/01/25 06:20:10;;;;;;;0.30;0.30;;;;;;;2.69;100.00;102781.59;5094328;28;20035;-57
2024/01/25 06:22:35;;;;;;;0.40;0.40;;;;;;;2.73;100.00;102779.44;5094079;28;20024;-57
2024/01/25 06:25:01;;;;;;;0.47;0.47;;;;;;;2.72;100.00;102781.88;5093560;28;20495;-57
2024/01/25 06:27:26;;;;;;;0.40;0.40;;;;;;;2.73;100.00;102788.75;5093756;28;20078;-57
2024/01/25 06:29:51;;;;;;;0.45;0.45;;;;;;;2.72;100.00;102789.50;5093617;28;20391;-58
2024/01/25 06:32:16;;;;;;;0.40;0.40;;;;;;;2.73;100.00;102793.84;5092881;28;20077;-55
2024/01/25 06:34:42;;;;;;;0.40;0.40;;;;;;;2.72;100.00;102797.16;5093640;28;20107;-55
2024/01/25 06:37:07;;;;;;;0.43;0.43;;;;;;;2.66;100.00;102801.66;5093787;28;20032;-55
2024/01/25 06:39:32;;;;;;;0.40;0.40;;;;;;;2.66;100.00;102806.75;5092865;28;20062;-55
2024/01/25 06:41:57;;;;;;;0.50;0.50;;;;;;;2.64;100.00;102815.13;5093626;28;20024;-55
2024/01/25 06:44:23;;;;;;;0.30;0.30;;;;;;;2.66;100.00;102816.94;5092499;28;20048;-56
2024/01/25 06:46:48;;;;;;;0.50;0.50;;;;;;;2.62;100.00;102814.13;5093022;28;20089;-55
2024/01/25 06:49:13;;;;;;;0.40;0.40;;;;;;;2.64;100.00;102810.03;5093493;28;20099;-55
2024/01/25 06:51:39;;;;;;;0.40;0.40;;;;;;;2.58;100.00;102813.66;5093473;28;20387;-55
2024/01/25 06:54:04;;;;;;;0.40;0.40;;;;;;;2.56;100.00;102807.56;5093087;28;20482;-55
2024/01/25 06:56:29;;;;;;;0.40;0.40;;;;;;;2.56;100.00;102811.00;5093020;28;20085;-56
2024/01/25 06:58:54;;;;;;;0.30;0.30;;;;;;;2.49;100.00;102816.25;5092884;28;20077;-56
2024/01/25 07:01:23;;;;;;;0.40;0.40;;;;;;;2.44;100.00;102809.81;5093123;28;20447;-55
2024/01/25 07:03:50;;;;;;;0.50;0.50;;;;;;;2.42;100.00;102807.13;5093107;28;20052;-55
2024/01/25 07:06:17;;;;;;;0.50;0.50;;;;;;;2.26;100.00;102804.81;5092145;28;20363;-55
2024/01/25 07:08:42;;;;;;;0.45;0.45;;;;;;;2.15;100.00;102810.50;5093385;28;20292;-55
2024/01/25 07:11:07;;;;;;;0.40;0.40;;;;;;;2.10;100.00;102809.19;5092449;28;20472;-55
2024/01/25 07:13:32;;;;;;;0.50;0.50;;;;;;;2.06;100.00;102805.44;5091919;28;20057;-55
2024/01/25 07:15:58;;;;;;;0.50;0.50;;;;;;;1.91;100.00;102804.88;5093281;28;20024;-55
2024/01/25 07:18:24;;;;;;;0.30;0.30;;;;;;;1.86;100.00;102803.53;5092536;28;20044;-56
2024/01/25 07:20:49;;;;;;;0.40;0.40;;;;;;;1.79;100.00;102793.50;5092788;28;20016;-56
2024/01/25 07:23:15;;;;;;;0.40;0.40;;;;;;;1.87;100.00;102791.72;5092884;28;20027;-56
2024/01/25 07:25:40;;;;;;;0.32;0.32;;;;;;;1.94;100.00;102799.19;5093004;28;20016;-55
2024/01/25 07:28:05;;;;;;;0.40;0.40;;;;;;;2.00;100.00;102807.38;5092563;28;20532;-55
2024/01/25 07:30:31;;;;;;;0.40;0.40;;;;;;;2.12;100.00;102810.22;5092340;28;20012;-55
2024/01/25 07:32:56;;;;;;;0.30;0.30;;;;;;;2.17;100.00;102821.75;5092920;28;20070;-56
2024/01/25 07:35:23;;;;;;;0.40;0.40;;;;;;;2.17;100.00;102831.91;5092213;28;20488;-56
2024/01/25 07:37:48;;;;;;;0.50;0.50;;;;;;;2.24;100.00;102830.84;5093039;28;20020;-56
2024/01/25 07:40:13;;;;;;;0.50;0.50;;;;;;;2.32;100.00;102829.03;5092353;28;20036;-57
2024/01/25 07:42:39;;;;;;;0.40;0.40;;;;;;;2.41;100.00;102827.34;5092102;28;20032;-56
2024/01/25 07:45:04;;;;;;;0.50;0.50;;;;;;;2.46;100.00;102818.50;5092482;28;20079;-56
2024/01/25 07:47:30;;;;;;;0.40;0.40;;;;;;;2.51;100.00;102826.59;5092233;28;20069;-56
2024/01/25 07:49:55;;;;;;;0.40;0.40;;;;;;;2.56;100.00;102826.25;5092008;28;20111;-56
2024/01/25 07:52:20;;;;;;;0.40;0.40;;;;;;;2.57;100.00;102819.50;5092603;28;20384;-56
2024/01/25 07:54:46;;;;;;;0.40;0.40;;;;;;;2.59;100.00;102813.81;5094587;28;20020;-56
2024/01/25 07:57:11;;;;;;;0.40;0.40;;;;;;;2.65;100.00;102810.97;5096198;28;20070;-57
2024/01/25 07:59:37;;;;;;;0.40;0.40;;;;;;;2.68;100.00;102807.81;5096740;28;20020;-56
2024/01/25 08:02:02;;;;;;;0.30;0.30;;;;;;;2.72;100.00;102814.97;5096461;28;20036;-56
2024/01/25 08:04:28;;;;;;;0.40;0.40;;;;;;;2.76;100.00;102824.69;5096094;28;20051;-56
2024/01/25 08:06:53;;;;;;;0.35;0.35;;;;;;;2.80;100.00;102831.84;5096834;28;20081;-57
2024/01/25 08:09:18;;;;;;;0.50;0.50;;;;;;;2.81;100.00;102838.72;5095727;28;20087;-57
2024/01/25 08:11:44;;;;;;;0.35;0.35;;;;;;;2.83;100.00;102832.16;5096621;28;20055;-57
2024/01/25 08:14:10;;;;;;;0.40;0.40;;;;;;;2.84;100.00;102833.94;5096167;28;20463;-58
2024/01/25 08:16:36;;;;;;;0.32;0.32;;;;;;;2.86;100.00;102831.53;5095628;28;20036;-58
2024/01/25 08:19:01;;;;;;;0.40;0.40;;;;;;;2.88;100.00;102823.28;5096709;28;20031;-57
2024/01/25 08:21:27;;;;;;;0.40;0.40;;;;;;;2.89;100.00;102822.53;5096005;28;20056;-58
2024/01/25 08:23:52;;;;;;;0.40;0.40;;;;;;;2.93;100.00;102834.78;5095842;28;20099;-58
2024/01/25 08:26:17;;;;;;;0.45;0.45;;;;;;;2.94;100.00;102836.59;5096016;28;20016;-57
2024/01/25 08:28:44;;;;;;;0.35;0.35;;;;;;;2.99;100.00;102838.66;5096080;28;20032;-57
2024/01/25 08:31:09;;;;;;;0.40;0.40;;;;;;;3.03;100.00;102843.28;5095504;28;20054;-57
2024/01/25 08:33:35;;;;;;;0.40;0.40;;;;;;;3.08;100.00;102821.66;5096130;28;20527;-58
2024/01/25 08:36:00;;;;;;;0.40;0.40;;;;;;;3.16;100.00;102807.97;5095905;28;20080;-57
2024/01/25 08:38:25;;;;;;;0.40;0.40;;;;;;;3.19;100.00;102798.06;5094977;28;20024;-57
2024/01/25 08:40:51;;;;;;;0.40;0.40;;;;;;;3.22;100.00;102803.44;5096179;28;20057;-58
2024/01/25 08:43:16;;;;;;;0.40;0.40;;;;;;;3.24;100.00;102812.13;5095256;28;20028;-56
2024/01/25 08:45:41;;;;;;;0.40;0.40;;;;;;;3.27;100.00;102809.84;5095493;28;20047;-55
2024/01/25 08:48:08;;;;;;;0.40;0.40;;;;;;;3.31;100.00;102810.16;5096092;28;20510;-55
2024/01/25 08:50:34;;;;;;;0.40;0.40;;;;;;;3.34;100.00;102821.50;5095548;28;20036;-56
2024/01/25 08:52:59;;;;;;;0.40;0.40;;;;;;;3.36;100.00;102830.19;5095330;28;20162;-55
2024/01/25 08:55:25;;;;;;;0.35;0.35;;;;;;;3.38;100.00;102835.41;5095540;28;20077;-57
2024/01/25 08:57:50;;;;;;;0.43;0.43;;;;;;;3.39;100.00;102832.13;5095442;28;20024;-57
2024/01/25 09:00:16;;;;;;;0.40;0.40;;;;;;;3.40;100.00;102844.09;5094671;28;20028;-57
2024/01/25 09:02:42;;;;;;;0.20;0.20;;;;;;;3.42;100.00;102838.41;5095787;28;20063;-58
2024/01/25 09:05:08;;;;;;;0.32;0.32;;;;;;;3.47;100.00;102843.88;5095208;28;20073;-56
2024/01/25 09:07:34;;;;;;;0.40;0.40;;;;;;;3.49;100.00;102850.03;5094510;28;20034;-58
2024/01/25 09:09:59;;;;;;;0.40;0.40;;;;;;;3.54;100.00;102853.91;5095415;28;20053;-57
2024/01/25 09:12:25;;;;;;;0.30;0.30;;;;;;;3.59;100.00;102852.66;5094729;28;20455;-58
2024/01/25 09:14:50;;;;;;;0.20;0.20;;;;;;;3.62;100.00;102839.28;5095049;28;20020;-57
2024/01/25 09:17:21;;;;;;;0.30;0.30;;;;;;;3.69;100.00;102843.28;5094964;28;20028;-57
2024/01/25 09:19:52;;;;;;;0.40;0.40;;;;;;;3.72;100.00;102847.00;5094760;28;20032;-57
2024/01/25 09:22:19;;;;;;;0.30;0.30;;;;;;;3.78;100.00;102847.56;5094867;28;20433;-58
2024/01/25 09:24:45;;;;;;;0.50;0.50;;;;;;;3.86;100.00;102848.25;5094875;28;20032;-57
2024/01/25 09:27:11;;;;;;;0.40;0.40;;;;;;;3.95;100.00;102836.31;5094368;28;20024;-58
2024/01/25 09:29:38;;;;;;;0.40;0.40;;;;;;;4.00;100.00;102836.69;5094922;28;20360;-57
2024/01/25 09:32:04;;;;;;;0.40;0.40;;;;;;;4.04;100.00;102846.44;5094995;28;20024;-57
2024/01/25 09:34:29;;;;;;;0.30;0.30;;;;;;;4.11;100.00;102852.97;5094323;28;20035;-57
2024/01/25 09:36:54;;;;;;;0.30;0.30;;;;;;;4.21;100.00;102847.91;5094912;28;20036;-58
2024/01/25 09:39:20;;;;;;;0.30;0.30;;;;;;;4.28;100.00;102840.00;5094541;28;20020;-58
2024/01/25 09:41:46;;;;;;;0.25;0.25;;;;;;;4.36;100.00;102837.25;5094404;28;20039;-57
2024/01/25 09:44:11;;;;;;;0.28;0.28;;;;;;;4.40;100.00;102840.22;5094483;28;20399;-58
2024/01/25 09:46:37;;;;;;;0.30;0.30;;;;;;;4.48;100.00;102843.44;5094678;28;20069;-57
2024/01/25 09:49:02;;;;;;;0.40;0.40;;;;;;;4.60;100.00;102844.47;5094369;28;20024;-57
2024/01/25 09:51:41;;;;;;;0.40;0.40;;;;;;;4.63;100.00;102841.28;5094427;28;20085;-57
2024/01/25 09:54:08;;;;;;;0.30;0.30;;;;;;;4.74;100.00;102844.78;5094434;28;20383;-58
2024/01/25 09:56:34;;;;;;;0.40;0.40;;;;;;;4.78;100.00;102844.28;5093621;28;20028;-58
2024/01/25 09:59:00;;;;;;;0.35;0.35;;;;;;;4.89;100.00;102840.06;5094472;28;20020;-58
2024/01/25 10:01:26;;;;;;;0.40;0.40;;;;;;;4.91;100.00;102836.88;5094182;28;20028;-57
2024/01/25 10:03:52;;;;;;;0.30;0.30;;;;;;;5.04;100.00;102833.69;5094006;28;20028;-58
2024/01/25 10:06:17;;;;;;;0.40;0.40;;;;;;;5.05;100.00;102839.72;5094167;28;20069;-58
2024/01/25 10:08:43;;;;;;;0.30;0.30;;;;;;;5.08;100.00;102829.72;5093729;28;20480;-57
2024/01/25 10:11:11;;;;;;;0.40;0.40;;;;;;;5.09;100.00;102826.41;5093923;28;20525;-58
2024/01/25 10:13:56;;;;;;;;;;;;;;;5.24;100.00;102822.59;5094836;28;20024;-58
2024/01/25 10:16:22;;;;;;;0.40;0.40;;;;;;;5.16;100.00;102817.59;5093447;28;19911;-58
2024/01/25 10:18:47;;;;;;;0.30;0.30;;;;;;;5.11;100.00;102814.66;5093739;28;20031;-58
2024/01/25 10:21:14;;;;;;;0.30;0.30;;;;;;;5.18;100.00;102808.41;5093635;28;20020;-57
2024/01/25 10:23:40;;;;;;;0.40;0.40;;;;;;;5.23;100.00;102815.69;5093437;28;20034;-58
2024/01/25 10:26:08;;;;;;;0.30;0.30;;;;;;;5.24;100.00;102819.13;5094008;28;20064;-58
2024/01/25 10:28:33;;;;;;;0.40;0.40;;;;;;;5.32;100.00;102819.75;5093344;28;20478;-55
2024/01/25 10:31:01;;;;;;;0.30;0.30;;;;;;;5.42;100.00;102823.22;5093353;28;20102;-56
2024/01/25 10:33:27;;;;;;;0.30;0.30;;;;;;;5.41;100.00;102805.16;5093747;28;20028;-57
2024/01/25 10:36:03;;;;;;;0.40;0.40;;;;;;;5.46;100.00;102803.88;5093497;28;20476;-58
2024/01/25 10:38:34;;;;;;;0.32;0.32;;;;;;;5.44;100.00;102805.44;5093193;28;20055;-58
2024/01/25 10:41:01;;;;;;;0.30;0.30;;;;;;;5.51;100.00;102800.03;5093942;28;20024;-58
2024/01/25 10:43:27;;;;;;;0.40;0.40;;;;;;;5.55;100.00;102796.97;5093062;28;20024;-58
2024/01/25 10:45:55;;;;;;;0.40;0.40;;;;;;;5.54;100.00;102792.63;5093353;28;20043;-56
2024/01/25 10:48:21;;;;;;;0.30;0.30;;;;;;;5.60;100.00;102793.13;5093372;28;20031;-55
2024/01/25 10:50:48;;;;;;;0.30;0.30;;;;;;;5.70;100.00;102793.88;5093550;28;20031;-57
2024/01/25 10:53:15;;;;;;;0.40;0.40;;;;;;;5.79;100.00;102797.16;5092908;28;20055;-57
2024/01/25 10:55:41;;;;;;;0.30;0.30;;;;;;;5.88;100.00;102784.22;5093611;28;20063;-58
2024/01/25 10:58:08;;;;;;;0.30;0.30;;;;;;;5.88;100.00;102782.53;5092251;28;20484;-57
2024/01/25 11:00:34;;;;;;;0.33;0.33;;;;;;;6.00;100.00;102776.66;5093325;28;20077;-56
2024/01/25 11:03:01;;;;;;;0.30;0.30;;;;;;;6.08;100.00;102773.94;5093078;28;20286;-56
2024/01/25 11:05:26;;;;;;;0.32;0.32;;;;;;;6.08;100.00;102770.47;5092147;28;20477;-56
2024/01/25 11:07:52;;;;;;;0.30;0.30;;;;;;;6.16;100.00;102777.09;5093336;28;20048;-55
2024/01/25 11:10:19;;;;;;;0.30;0.30;;;;;;;6.23;100.00;102784.47;5092840;28;20032;-58
2024/01/25 11:12:58;;;;;;;0.30;0.30;;;;;;;6.34;100.00;102771.63;5092652;28;20080;-58
2024/01/25 11:15:32;;;;;;;0.30;0.30;;;;;;;6.32;100.00;102762.94;5092643;28;20036;-58
2024/01/25 11:17:57;;;;;;;0.30;0.30;;;;;;;6.35;100.00;102748.72;5092762;28;20371;-58